sensor_id;sensor_type;location;lat;lon;timestamp;pressure;altitude;pressure_sealevel;temperature;humidity
50302;BME280;36550;50.472;19.744;2023-04-04T00:01:52;98720.65;;;-0.78;76.27
50302;BME280;36550;50.472;19.744;2023-04-04T00:04:36;98722.22;;;-0.81;76.19
50302;BME280;36550;50.472;19.744;2023-04-04T00:07:19;98719.36;;;-0.83;76.18
50302;BME280;36550;50.472;19.744;2023-04-04T00:10:04;98715.17;;;-0.84;76.21
50302;BME280;36550;50.472;19.744;2023-04-04T00:12:48;98712.56;;;-0.84;76.19
50302;BME280;36550;50.472;19.744;2023-04-04T00:15:31;98714.42;;;-0.87;76.56
50302;BME280;36550;50.472;19.744;2023-04-04T00:18:17;98713.83;;;-0.93;76.87
50302;BME280;36550;50.472;19.744;2023-04-04T00:21:00;98712.40;;;-0.95;76.92
50302;BME280;36550;50.472;19.744;2023-04-04T00:23:44;98711.04;;;-0.93;76.58
50302;BME280;36550;50.472;19.744;2023-04-04T00:26:29;98706.69;;;-0.94;76.77
50302;BME280;36550;50.472;19.744;2023-04-04T00:29:13;98710.52;;;-0.95;76.65
50302;BME280;36550;50.472;19.744;2023-04-04T00:31:57;98711.58;;;-0.97;76.88
50302;BME280;36550;50.472;19.744;2023-04-04T00:34:41;98710.16;;;-0.94;76.61
50302;BME280;36550;50.472;19.744;2023-04-04T00:37:25;98708.86;;;-0.94;76.50
50302;BME280;36550;50.472;19.744;2023-04-04T00:40:10;98706.74;;;-0.95;76.37
50302;BME280;36550;50.472;19.744;2023-04-04T00:42:55;98708.67;;;-0.98;76.41
50302;BME280;36550;50.472;19.744;2023-04-04T00:45:40;98708.25;;;-0.98;76.37
50302;BME280;36550;50.472;19.744;2023-04-04T00:48:24;98708.08;;;-0.98;76.25
50302;BME280;36550;50.472;19.744;2023-04-04T00:51:08;98710.55;;;-0.99;76.32
50302;BME280;36550;50.472;19.744;2023-04-04T00:53:51;98711.05;;;-1.03;76.36
50302;BME280;36550;50.472;19.744;2023-04-04T00:56:36;98712.25;;;-1.08;76.75
50302;BME280;36550;50.472;19.744;2023-04-04T00:59:21;98707.59;;;-1.11;76.82
50302;BME280;36550;50.472;19.744;2023-04-04T01:02:06;98706.33;;;-1.13;76.59
50302;BME280;36550;50.472;19.744;2023-04-04T01:04:50;98707.56;;;-1.17;76.90
50302;BME280;36550;50.472;19.744;2023-04-04T01:07:34;98708.17;;;-1.25;77.47
50302;BME280;36550;50.472;19.744;2023-04-04T01:10:19;98710.05;;;-1.33;77.29
50302;BME280;36550;50.472;19.744;2023-04-04T01:13:03;98713.38;;;-1.43;78.06
50302;BME280;36550;50.472;19.744;2023-04-04T01:15:47;98715.64;;;-1.49;78.01
50302;BME280;36550;50.472;19.744;2023-04-04T01:18:31;98715.87;;;-1.53;77.76
50302;BME280;36550;50.472;19.744;2023-04-04T01:21:17;98714.48;;;-1.61;77.93
50302;BME280;36550;50.472;19.744;2023-04-04T01:24:04;98712.27;;;-1.66;78.11
50302;BME280;36550;50.472;19.744;2023-04-04T01:26:49;98711.28;;;-1.73;78.34
50302;BME280;36550;50.472;19.744;2023-04-04T01:29:33;98714.52;;;-1.76;78.41
50302;BME280;36550;50.472;19.744;2023-04-04T01:32:28;98721.45;;;-1.83;78.82
50302;BME280;36550;50.472;19.744;2023-04-04T01:35:27;98719.38;;;-1.90;79.17
50302;BME280;36550;50.472;19.744;2023-04-04T01:38:17;98721.55;;;-1.96;79.19
50302;BME280;36550;50.472;19.744;2023-04-04T01:41:05;98715.27;;;-1.98;79.01
50302;BME280;36550;50.472;19.744;2023-04-04T01:43:50;98716.94;;;-2.02;79.21
50302;BME280;36550;50.472;19.744;2023-04-04T01:46:35;98719.33;;;-2.07;79.43
50302;BME280;36550;50.472;19.744;2023-04-04T01:49:19;98720.23;;;-2.14;79.41
50302;BME280;36550;50.472;19.744;2023-04-04T01:52:03;98721.66;;;-2.18;79.55
50302;BME280;36550;50.472;19.744;2023-04-04T01:54:49;98723.48;;;-2.20;79.62
50302;BME280;36550;50.472;19.744;2023-04-04T01:57:34;98729.31;;;-2.23;79.97
50302;BME280;36550;50.472;19.744;2023-04-04T02:00:18;98728.41;;;-2.27;79.69
50302;BME280;36550;50.472;19.744;2023-04-04T02:03:01;98731.23;;;-2.32;79.85
50302;BME280;36550;50.472;19.744;2023-04-04T02:05:46;98733.12;;;-2.36;79.94
50302;BME280;36550;50.472;19.744;2023-04-04T02:08:30;98733.05;;;-2.37;80.18
50302;BME280;36550;50.472;19.744;2023-04-04T02:11:14;98736.09;;;-2.37;80.10
50302;BME280;36550;50.472;19.744;2023-04-04T02:13:59;98735.69;;;-2.36;80.42
50302;BME280;36550;50.472;19.744;2023-04-04T02:16:42;98736.31;;;-2.35;80.42
50302;BME280;36550;50.472;19.744;2023-04-04T02:19:26;98734.84;;;-2.36;80.56
50302;BME280;36550;50.472;19.744;2023-04-04T02:22:10;98734.68;;;-2.36;80.94
50302;BME280;36550;50.472;19.744;2023-04-04T02:24:54;98732.95;;;-2.36;81.16
50302;BME280;36550;50.472;19.744;2023-04-04T02:27:40;98737.61;;;-2.38;81.00
50302;BME280;36550;50.472;19.744;2023-04-04T02:30:24;98738.02;;;-2.43;81.02
50302;BME280;36550;50.472;19.744;2023-04-04T02:33:08;98738.88;;;-2.45;81.10
50302;BME280;36550;50.472;19.744;2023-04-04T02:35:55;98740.09;;;-2.45;80.98
50302;BME280;36550;50.472;19.744;2023-04-04T02:38:39;98740.86;;;-2.44;80.77
50302;BME280;36550;50.472;19.744;2023-04-04T02:41:22;98738.70;;;-2.45;81.09
50302;BME280;36550;50.472;19.744;2023-04-04T02:44:06;98741.79;;;-2.48;81.12
50302;BME280;36550;50.472;19.744;2023-04-04T02:46:52;98741.10;;;-2.53;81.37
50302;BME280;36550;50.472;19.744;2023-04-04T02:49:36;98741.11;;;-2.55;81.65
50302;BME280;36550;50.472;19.744;2023-04-04T02:52:21;98738.50;;;-2.55;81.84
50302;BME280;36550;50.472;19.744;2023-04-04T02:55:05;98736.52;;;-2.54;81.46
50302;BME280;36550;50.472;19.744;2023-04-04T02:57:50;98733.60;;;-2.54;81.71
50302;BME280;36550;50.472;19.744;2023-04-04T03:00:34;98732.83;;;-2.54;81.43
50302;BME280;36550;50.472;19.744;2023-04-04T03:03:19;98729.84;;;-2.59;82.16
50302;BME280;36550;50.472;19.744;2023-04-04T03:06:02;98731.42;;;-2.60;82.44
50302;BME280;36550;50.472;19.744;2023-04-04T03:08:46;98732.95;;;-2.60;82.05
50302;BME280;36550;50.472;19.744;2023-04-04T03:11:30;98735.91;;;-2.58;81.67
50302;BME280;36550;50.472;19.744;2023-04-04T03:14:14;98734.41;;;-2.61;81.85
50302;BME280;36550;50.472;19.744;2023-04-04T03:16:58;98734.68;;;-2.62;81.94
50302;BME280;36550;50.472;19.744;2023-04-04T03:19:42;98734.92;;;-2.63;81.70
50302;BME280;36550;50.472;19.744;2023-04-04T03:22:25;98732.54;;;-2.61;81.92
50302;BME280;36550;50.472;19.744;2023-04-04T03:25:09;98729.92;;;-2.58;82.02
50302;BME280;36550;50.472;19.744;2023-04-04T03:27:54;98729.71;;;-2.56;82.04
50302;BME280;36550;50.472;19.744;2023-04-04T03:30:38;98732.82;;;-2.58;82.50
50302;BME280;36550;50.472;19.744;2023-04-04T03:33:22;98728.94;;;-2.59;82.40
50302;BME280;36550;50.472;19.744;2023-04-04T03:36:10;98728.64;;;-2.61;82.85
50302;BME280;36550;50.472;19.744;2023-04-04T03:38:54;98726.40;;;-2.63;82.88
50302;BME280;36550;50.472;19.744;2023-04-04T03:41:38;98726.09;;;-2.64;82.90
50302;BME280;36550;50.472;19.744;2023-04-04T03:44:22;98724.45;;;-2.66;82.95
50302;BME280;36550;50.472;19.744;2023-04-04T03:47:05;98723.05;;;-2.68;83.12
50302;BME280;36550;50.472;19.744;2023-04-04T03:49:49;98722.55;;;-2.66;82.74
50302;BME280;36550;50.472;19.744;2023-04-04T03:52:37;98719.36;;;-2.65;82.81
50302;BME280;36550;50.472;19.744;2023-04-04T03:55:24;98715.86;;;-2.64;82.74
50302;BME280;36550;50.472;19.744;2023-04-04T03:58:08;98716.77;;;-2.65;82.64
50302;BME280;36550;50.472;19.744;2023-04-04T04:00:52;98714.24;;;-2.65;82.75
50302;BME280;36550;50.472;19.744;2023-04-04T04:03:37;98712.65;;;-2.63;82.94
50302;BME280;36550;50.472;19.744;2023-04-04T04:06:20;98712.90;;;-2.59;82.59
50302;BME280;36550;50.472;19.744;2023-04-04T04:09:04;98712.11;;;-2.60;82.87
50302;BME280;36550;50.472;19.744;2023-04-04T04:11:48;98713.33;;;-2.62;82.97
50302;BME280;36550;50.472;19.744;2023-04-04T04:14:31;98713.08;;;-2.63;83.20
50302;BME280;36550;50.472;19.744;2023-04-04T04:17:15;98711.83;;;-2.63;83.40
50302;BME280;36550;50.472;19.744;2023-04-04T04:19:59;98714.52;;;-2.59;82.99
50302;BME280;36550;50.472;19.744;2023-04-04T04:22:45;98711.88;;;-2.60;82.91
50302;BME280;36550;50.472;19.744;2023-04-04T04:25:32;98712.63;;;-2.61;82.95
50302;BME280;36550;50.472;19.744;2023-04-04T04:28:16;98714.36;;;-2.57;82.91
50302;BME280;36550;50.472;19.744;2023-04-04T04:31:06;98711.98;;;-2.53;82.80
50302;BME280;36550;50.472;19.744;2023-04-04T04:33:50;98714.37;;;-2.53;82.75
50302;BME280;36550;50.472;19.744;2023-04-04T04:36:35;98707.86;;;-2.53;82.63
50302;BME280;36550;50.472;19.744;2023-04-04T04:39:19;98707.96;;;-2.52;82.48
50302;BME280;36550;50.472;19.744;2023-04-04T04:42:03;98709.23;;;-2.49;82.57
50302;BME280;36550;50.472;19.744;2023-04-04T04:44:46;98710.38;;;-2.48;82.29
50302;BME280;36550;50.472;19.744;2023-04-04T04:47:30;98715.44;;;-2.49;82.40
50302;BME280;36550;50.472;19.744;2023-04-04T04:50:15;98716.95;;;-2.48;82.53
50302;BME280;36550;50.472;19.744;2023-04-04T04:52:59;98712.19;;;-2.40;82.30
50302;BME280;36550;50.472;19.744;2023-04-04T04:55:43;98714.74;;;-2.36;82.05
50302;BME280;36550;50.472;19.744;2023-04-04T04:58:28;98714.86;;;-2.33;81.94
50302;BME280;36550;50.472;19.744;2023-04-04T05:01:12;98718.99;;;-2.33;81.91
50302;BME280;36550;50.472;19.744;2023-04-04T05:03:56;98723.65;;;-2.29;81.89
50302;BME280;36550;50.472;19.744;2023-04-04T05:06:40;98721.38;;;-2.25;81.68
50302;BME280;36550;50.472;19.744;2023-04-04T05:09:25;98715.16;;;-2.28;81.55
50302;BME280;36550;50.472;19.744;2023-04-04T05:12:08;98719.63;;;-2.28;81.54
50302;BME280;36550;50.472;19.744;2023-04-04T05:14:52;98722.25;;;-2.21;81.42
50302;BME280;36550;50.472;19.744;2023-04-04T05:17:36;98719.87;;;-2.14;81.21
50302;BME280;36550;50.472;19.744;2023-04-04T05:20:20;98718.16;;;-2.16;81.01
50302;BME280;36550;50.472;19.744;2023-04-04T05:23:04;98719.98;;;-2.11;81.04
50302;BME280;36550;50.472;19.744;2023-04-04T05:25:49;98718.17;;;-2.02;81.03
50302;BME280;36550;50.472;19.744;2023-04-04T05:28:34;98722.05;;;-1.90;80.53
50302;BME280;36550;50.472;19.744;2023-04-04T05:31:18;98720.44;;;-1.82;80.50
50302;BME280;36550;50.472;19.744;2023-04-04T05:34:02;98726.70;;;-1.75;79.97
50302;BME280;36550;50.472;19.744;2023-04-04T05:36:50;98725.02;;;-1.64;79.84
50302;BME280;36550;50.472;19.744;2023-04-04T05:39:36;98724.30;;;-1.55;79.62
50302;BME280;36550;50.472;19.744;2023-04-04T05:42:20;98729.02;;;-1.51;79.32
50302;BME280;36550;50.472;19.744;2023-04-04T05:45:04;98730.60;;;-1.53;78.57
50302;BME280;36550;50.472;19.744;2023-04-04T05:47:48;98728.75;;;-1.46;78.40
50302;BME280;36550;50.472;19.744;2023-04-04T05:50:32;98728.11;;;-1.43;77.87
50302;BME280;36550;50.472;19.744;2023-04-04T05:53:16;98725.49;;;-1.36;77.86
50302;BME280;36550;50.472;19.744;2023-04-04T05:56:00;98726.07;;;-1.27;77.40
50302;BME280;36550;50.472;19.744;2023-04-04T05:58:43;98722.98;;;-1.24;76.70
50302;BME280;36550;50.472;19.744;2023-04-04T06:01:28;98727.50;;;-1.19;76.61
50302;BME280;36550;50.472;19.744;2023-04-04T06:04:13;98729.98;;;-1.10;76.18
50302;BME280;36550;50.472;19.744;2023-04-04T06:06:57;98731.90;;;-1.04;75.41
50302;BME280;36550;50.472;19.744;2023-04-04T06:09:41;98727.05;;;-1.03;74.62
50302;BME280;36550;50.472;19.744;2023-04-04T06:12:25;98728.91;;;-1.12;74.58
50302;BME280;36550;50.472;19.744;2023-04-04T06:15:09;98725.89;;;-1.11;74.83
50302;BME280;36550;50.472;19.744;2023-04-04T06:17:53;98725.06;;;-1.00;75.34
50302;BME280;36550;50.472;19.744;2023-04-04T06:20:38;98731.07;;;-0.87;75.23
50302;BME280;36550;50.472;19.744;2023-04-04T06:23:22;98732.73;;;-0.85;74.43
50302;BME280;36550;50.472;19.744;2023-04-04T06:26:06;98734.34;;;-0.89;73.63
50302;BME280;36550;50.472;19.744;2023-04-04T06:28:51;98735.81;;;-1.03;73.83
50302;BME280;36550;50.472;19.744;2023-04-04T06:31:34;98733.33;;;-1.01;74.04
50302;BME280;36550;50.472;19.744;2023-04-04T06:34:22;98736.23;;;-0.98;74.46
50302;BME280;36550;50.472;19.744;2023-04-04T06:37:06;98735.58;;;-0.91;74.22
50302;BME280;36550;50.472;19.744;2023-04-04T06:39:50;98733.57;;;-0.86;74.75
50302;BME280;36550;50.472;19.744;2023-04-04T06:42:34;98729.77;;;-0.80;74.37
50302;BME280;36550;50.472;19.744;2023-04-04T06:45:18;98737.44;;;-0.68;74.13
50302;BME280;36550;50.472;19.744;2023-04-04T06:48:02;98734.17;;;-0.69;73.57
50302;BME280;36550;50.472;19.744;2023-04-04T06:50:46;98732.36;;;-0.64;73.24
50302;BME280;36550;50.472;19.744;2023-04-04T06:53:31;98731.77;;;-0.60;72.82
50302;BME280;36550;50.472;19.744;2023-04-04T06:56:15;98727.45;;;-0.63;71.97
50302;BME280;36550;50.472;19.744;2023-04-04T06:58:59;98729.13;;;-0.50;73.04
50302;BME280;36550;50.472;19.744;2023-04-04T07:01:43;98730.42;;;-0.33;73.63
50302;BME280;36550;50.472;19.744;2023-04-04T07:04:27;98734.29;;;-0.17;73.60
50302;BME280;36550;50.472;19.744;2023-04-04T07:07:11;98733.09;;;-0.03;72.65
50302;BME280;36550;50.472;19.744;2023-04-04T07:09:55;98729.52;;;-0.02;71.61
50302;BME280;36550;50.472;19.744;2023-04-04T07:12:39;98727.14;;;0.04;71.93
50302;BME280;36550;50.472;19.744;2023-04-04T07:15:23;98728.16;;;0.02;70.94
50302;BME280;36550;50.472;19.744;2023-04-04T07:18:07;98731.90;;;0.06;71.40
50302;BME280;36550;50.472;19.744;2023-04-04T07:20:51;98729.08;;;0.09;71.23
50302;BME280;36550;50.472;19.744;2023-04-04T07:23:35;98725.48;;;0.08;71.07
50302;BME280;36550;50.472;19.744;2023-04-04T07:26:19;98717.06;;;0.15;71.20
50302;BME280;36550;50.472;19.744;2023-04-04T07:29:04;98716.58;;;0.29;71.82
50302;BME280;36550;50.472;19.744;2023-04-04T07:31:48;98715.68;;;0.38;71.24
50302;BME280;36550;50.472;19.744;2023-04-04T07:34:32;98713.33;;;0.53;71.66
50302;BME280;36550;50.472;19.744;2023-04-04T07:37:16;98718.88;;;0.64;70.99
50302;BME280;36550;50.472;19.744;2023-04-04T07:40:00;98716.66;;;0.72;71.12
50302;BME280;36550;50.472;19.744;2023-04-04T07:42:44;98717.13;;;0.76;70.78
50302;BME280;36550;50.472;19.744;2023-04-04T07:45:28;98720.18;;;0.78;70.33
50302;BME280;36550;50.472;19.744;2023-04-04T07:48:12;98722.55;;;0.68;69.39
50302;BME280;36550;50.472;19.744;2023-04-04T07:50:56;98722.21;;;0.56;68.27
50302;BME280;36550;50.472;19.744;2023-04-04T07:53:40;98716.80;;;0.51;68.93
50302;BME280;36550;50.472;19.744;2023-04-04T07:56:24;98719.02;;;0.51;68.65
50302;BME280;36550;50.472;19.744;2023-04-04T07:59:08;98713.86;;;0.50;68.86
50302;BME280;36550;50.472;19.744;2023-04-04T08:01:52;98711.92;;;0.57;69.77
50302;BME280;36550;50.472;19.744;2023-04-04T08:04:36;98713.48;;;0.66;69.71
50302;BME280;36550;50.472;19.744;2023-04-04T08:07:20;98708.08;;;0.72;68.35
50302;BME280;36550;50.472;19.744;2023-04-04T08:10:05;98707.88;;;0.86;69.35
50302;BME280;36550;50.472;19.744;2023-04-04T08:12:49;98707.34;;;0.98;69.21
50302;BME280;36550;50.472;19.744;2023-04-04T08:15:33;98709.16;;;1.04;68.83
50302;BME280;36550;50.472;19.744;2023-04-04T08:18:17;98707.27;;;1.07;67.64
50302;BME280;36550;50.472;19.744;2023-04-04T08:21:01;98701.88;;;1.21;68.36
50302;BME280;36550;50.472;19.744;2023-04-04T08:23:45;98703.16;;;1.22;66.38
50302;BME280;36550;50.472;19.744;2023-04-04T08:26:29;98706.95;;;1.12;65.00
50302;BME280;36550;50.472;19.744;2023-04-04T08:29:13;98701.19;;;1.02;66.35
50302;BME280;36550;50.472;19.744;2023-04-04T08:31:57;98705.37;;;1.10;67.03
50302;BME280;36550;50.472;19.744;2023-04-04T08:34:41;98702.39;;;1.31;67.79
50302;BME280;36550;50.472;19.744;2023-04-04T08:37:25;98702.45;;;1.46;65.70
50302;BME280;36550;50.472;19.744;2023-04-04T08:40:09;98693.61;;;1.56;64.07
50302;BME280;36550;50.472;19.744;2023-04-04T08:42:53;98691.83;;;1.70;64.44
50302;BME280;36550;50.472;19.744;2023-04-04T08:45:37;98694.52;;;1.66;62.51
50302;BME280;36550;50.472;19.744;2023-04-04T08:48:23;98690.02;;;1.69;62.84
50302;BME280;36550;50.472;19.744;2023-04-04T08:51:09;98684.25;;;2.03;65.26
50302;BME280;36550;50.472;19.744;2023-04-04T08:53:54;98683.70;;;2.44;65.52
50302;BME280;36550;50.472;19.744;2023-04-04T08:56:39;98682.42;;;2.61;61.03
50302;BME280;36550;50.472;19.744;2023-04-04T08:59:22;98680.39;;;2.66;60.16
50302;BME280;36550;50.472;19.744;2023-04-04T09:04:54;98681.13;;;2.08;58.15
50302;BME280;36550;50.472;19.744;2023-04-04T09:07:39;98677.64;;;1.87;57.83
50302;BME280;36550;50.472;19.744;2023-04-04T09:10:23;98677.19;;;1.90;58.25
50302;BME280;36550;50.472;19.744;2023-04-04T09:13:07;98673.42;;;1.99;58.17
50302;BME280;36550;50.472;19.744;2023-04-04T09:15:52;98669.60;;;2.09;57.68
50302;BME280;36550;50.472;19.744;2023-04-04T09:18:40;98670.55;;;2.26;58.52
50302;BME280;36550;50.472;19.744;2023-04-04T09:21:23;98670.55;;;2.63;58.70
50302;BME280;36550;50.472;19.744;2023-04-04T09:24:08;98675.45;;;2.91;58.97
50302;BME280;36550;50.472;19.744;2023-04-04T09:26:52;98672.86;;;3.04;58.11
50302;BME280;36550;50.472;19.744;2023-04-04T09:29:36;98675.14;;;3.16;57.25
50302;BME280;36550;50.472;19.744;2023-04-04T09:32:20;98672.73;;;3.32;55.05
50302;BME280;36550;50.472;19.744;2023-04-04T09:35:07;98670.79;;;3.52;54.09
50302;BME280;36550;50.472;19.744;2023-04-04T09:37:51;98670.24;;;3.69;54.15
50302;BME280;36550;50.472;19.744;2023-04-04T09:40:36;98672.38;;;3.99;55.00
50302;BME280;36550;50.472;19.744;2023-04-04T09:43:21;98668.04;;;4.21;56.05
50302;BME280;36550;50.472;19.744;2023-04-04T09:46:05;98668.40;;;4.28;54.14
50302;BME280;36550;50.472;19.744;2023-04-04T09:48:50;98672.08;;;4.23;51.33
50302;BME280;36550;50.472;19.744;2023-04-04T09:51:34;98674.14;;;4.07;50.41
50302;BME280;36550;50.472;19.744;2023-04-04T09:54:21;98672.66;;;3.93;50.90
50302;BME280;36550;50.472;19.744;2023-04-04T09:57:06;98676.08;;;3.84;50.87
50302;BME280;36550;50.472;19.744;2023-04-04T09:59:51;98677.51;;;3.83;51.55
50302;BME280;36550;50.472;19.744;2023-04-04T10:02:38;98671.31;;;3.88;51.82
50302;BME280;36550;50.472;19.744;2023-04-04T10:05:23;98675.03;;;3.89;50.53
50302;BME280;36550;50.472;19.744;2023-04-04T10:10:59;98670.17;;;3.96;51.57
50302;BME280;36550;50.472;19.744;2023-04-04T10:13:44;98671.59;;;4.08;51.78
50302;BME280;36550;50.472;19.744;2023-04-04T10:16:32;98674.88;;;4.11;51.54
50302;BME280;36550;50.472;19.744;2023-04-04T10:19:17;98676.56;;;3.96;49.38
50302;BME280;36550;50.472;19.744;2023-04-04T10:22:01;98674.34;;;3.82;48.69
50302;BME280;36550;50.472;19.744;2023-04-04T10:24:45;98662.53;;;3.81;49.49
50302;BME280;36550;50.472;19.744;2023-04-04T10:27:30;98660.71;;;3.90;48.55
50302;BME280;36550;50.472;19.744;2023-04-04T10:30:14;98656.39;;;4.03;49.04
50302;BME280;36550;50.472;19.744;2023-04-04T10:33:06;98658.70;;;4.22;48.87
50302;BME280;36550;50.472;19.744;2023-04-04T10:35:55;98657.29;;;4.24;47.74
50302;BME280;36550;50.472;19.744;2023-04-04T10:38:42;98652.47;;;4.22;48.04
50302;BME280;36550;50.472;19.744;2023-04-04T10:41:26;98651.04;;;4.26;48.38
50302;BME280;36550;50.472;19.744;2023-04-04T10:44:22;98651.08;;;4.17;48.11
50302;BME280;36550;50.472;19.744;2023-04-04T10:47:17;98661.72;;;4.02;48.57
50302;BME280;36550;50.472;19.744;2023-04-04T10:50:02;98655.04;;;3.97;49.90
50302;BME280;36550;50.472;19.744;2023-04-04T10:52:46;98658.38;;;4.09;48.93
50302;BME280;36550;50.472;19.744;2023-04-04T10:55:30;98651.16;;;4.10;48.72
50302;BME280;36550;50.472;19.744;2023-04-04T10:58:15;98646.73;;;4.12;49.67
50302;BME280;36550;50.472;19.744;2023-04-04T11:00:59;98642.75;;;4.03;48.25
50302;BME280;36550;50.472;19.744;2023-04-04T11:12:34;98631.90;;;4.77;50.41
50302;BME280;36550;50.472;19.744;2023-04-04T11:15:27;98631.02;;;4.98;48.12
50302;BME280;36550;50.472;19.744;2023-04-04T11:21:16;98636.55;;;4.77;46.74
50302;BME280;36550;50.472;19.744;2023-04-04T11:26:48;98630.39;;;4.62;47.21
50302;BME280;36550;50.472;19.744;2023-04-04T11:29:53;98624.77;;;4.58;47.43
50302;BME280;36550;50.472;19.744;2023-04-04T11:32:42;98626.65;;;4.67;48.72
50302;BME280;36550;50.472;19.744;2023-04-04T11:35:30;98627.59;;;4.65;47.56
50302;BME280;36550;50.472;19.744;2023-04-04T11:38:14;98627.23;;;4.50;48.01
50302;BME280;36550;50.472;19.744;2023-04-04T11:40:58;98632.05;;;4.52;48.13
50302;BME280;36550;50.472;19.744;2023-04-04T11:43:43;98629.19;;;4.41;47.66
50302;BME280;36550;50.472;19.744;2023-04-04T11:46:28;98626.86;;;4.52;49.55
50302;BME280;36550;50.472;19.744;2023-04-04T11:49:12;98628.80;;;4.59;48.25
50302;BME280;36550;50.472;19.744;2023-04-04T11:51:57;98627.08;;;4.47;46.88
50302;BME280;36550;50.472;19.744;2023-04-04T11:54:41;98622.91;;;4.50;47.28
50302;BME280;36550;50.472;19.744;2023-04-04T11:57:26;98621.57;;;4.57;47.66
50302;BME280;36550;50.472;19.744;2023-04-04T12:00:10;98615.95;;;4.56;47.24
50302;BME280;36550;50.472;19.744;2023-04-04T12:02:58;98621.16;;;4.62;47.67
50302;BME280;36550;50.472;19.744;2023-04-04T12:05:42;98622.75;;;4.56;45.93
50302;BME280;36550;50.472;19.744;2023-04-04T12:08:26;98620.52;;;4.47;45.34
50302;BME280;36550;50.472;19.744;2023-04-04T12:11:10;98621.32;;;4.36;45.79
50302;BME280;36550;50.472;19.744;2023-04-04T12:13:58;98622.58;;;4.39;47.68
50302;BME280;36550;50.472;19.744;2023-04-04T12:16:43;98619.13;;;4.27;46.93
50302;BME280;36550;50.472;19.744;2023-04-04T12:19:27;98624.65;;;4.22;47.60
50302;BME280;36550;50.472;19.744;2023-04-04T12:22:11;98629.00;;;4.03;46.98
50302;BME280;36550;50.472;19.744;2023-04-04T12:24:55;98633.26;;;4.01;47.50
50302;BME280;36550;50.472;19.744;2023-04-04T12:27:41;98636.79;;;3.90;47.94
50302;BME280;36550;50.472;19.744;2023-04-04T12:30:25;98642.91;;;3.71;47.42
50302;BME280;36550;50.472;19.744;2023-04-04T12:33:09;98641.56;;;3.51;49.01
50302;BME280;36550;50.472;19.744;2023-04-04T12:35:53;98643.34;;;3.44;49.12
50302;BME280;36550;50.472;19.744;2023-04-04T12:42:18;98633.43;;;3.35;51.18
50302;BME280;36550;50.472;19.744;2023-04-04T12:44:51;98636.64;;;3.40;51.75
50302;BME280;36550;50.472;19.744;2023-04-04T12:47:36;98641.76;;;3.27;50.86
50302;BME280;36550;50.472;19.744;2023-04-04T12:50:23;98636.16;;;3.19;51.82
50302;BME280;36550;50.472;19.744;2023-04-04T12:53:09;98638.97;;;3.06;52.36
50302;BME280;36550;50.472;19.744;2023-04-04T12:55:53;98636.20;;;2.99;51.31
50302;BME280;36550;50.472;19.744;2023-04-04T12:58:37;98640.79;;;2.99;51.63
50302;BME280;36550;50.472;19.744;2023-04-04T13:01:20;98641.38;;;2.93;52.10
50302;BME280;36550;50.472;19.744;2023-04-04T13:04:06;98644.88;;;2.86;52.51
50302;BME280;36550;50.472;19.744;2023-04-04T13:06:51;98651.13;;;2.70;52.08
50302;BME280;36550;50.472;19.744;2023-04-04T13:09:35;98643.44;;;2.59;52.99
50302;BME280;36550;50.472;19.744;2023-04-04T13:12:18;98647.52;;;2.59;53.46
50302;BME280;36550;50.472;19.744;2023-04-04T13:15:02;98639.95;;;2.57;52.90
50302;BME280;36550;50.472;19.744;2023-04-04T13:17:48;98650.73;;;2.55;52.62
50302;BME280;36550;50.472;19.744;2023-04-04T13:20:32;98646.27;;;2.51;52.11
50302;BME280;36550;50.472;19.744;2023-04-04T13:23:16;98650.48;;;2.52;53.17
50302;BME280;36550;50.472;19.744;2023-04-04T13:26:00;98656.05;;;2.52;53.53
50302;BME280;36550;50.472;19.744;2023-04-04T13:28:44;98654.40;;;2.45;53.17
50302;BME280;36550;50.472;19.744;2023-04-04T13:31:28;98651.86;;;2.33;53.14
50302;BME280;36550;50.472;19.744;2023-04-04T13:34:11;98651.46;;;2.23;52.87
50302;BME280;36550;50.472;19.744;2023-04-04T13:36:55;98652.09;;;2.13;52.59
50302;BME280;36550;50.472;19.744;2023-04-04T13:39:39;98651.41;;;2.12;53.29
50302;BME280;36550;50.472;19.744;2023-04-04T13:42:23;98658.65;;;2.08;53.41
50302;BME280;36550;50.472;19.744;2023-04-04T13:45:13;98659.62;;;2.12;53.54
50302;BME280;36550;50.472;19.744;2023-04-04T13:47:57;98660.95;;;2.13;53.70
50302;BME280;36550;50.472;19.744;2023-04-04T13:50:43;98660.52;;;2.01;52.49
50302;BME280;36550;50.472;19.744;2023-04-04T13:53:27;98654.08;;;1.93;52.24
50302;BME280;36550;50.472;19.744;2023-04-04T13:56:11;98656.90;;;1.86;52.63
50302;BME280;36550;50.472;19.744;2023-04-04T13:58:54;98647.84;;;1.79;53.03
50302;BME280;36550;50.472;19.744;2023-04-04T14:01:39;98649.33;;;1.71;53.84
50302;BME280;36550;50.472;19.744;2023-04-04T14:04:23;98644.89;;;1.67;53.79
50302;BME280;36550;50.472;19.744;2023-04-04T14:07:07;98646.45;;;1.64;53.43
50302;BME280;36550;50.472;19.744;2023-04-04T14:09:51;98644.44;;;1.62;52.96
50302;BME280;36550;50.472;19.744;2023-04-04T14:12:34;98649.11;;;1.55;52.11
50302;BME280;36550;50.472;19.744;2023-04-04T14:15:18;98648.40;;;1.53;52.24
50302;BME280;36550;50.472;19.744;2023-04-04T14:18:02;98638.29;;;1.48;53.12
50302;BME280;36550;50.472;19.744;2023-04-04T14:20:46;98640.52;;;1.54;54.49
50302;BME280;36550;50.472;19.744;2023-04-04T14:23:30;98644.62;;;1.53;53.02
50302;BME280;36550;50.472;19.744;2023-04-04T14:26:14;98641.81;;;1.57;53.74
50302;BME280;36550;50.472;19.744;2023-04-04T14:28:58;98641.44;;;1.65;52.82
50302;BME280;36550;50.472;19.744;2023-04-04T14:31:42;98645.14;;;1.56;52.87
50302;BME280;36550;50.472;19.744;2023-04-04T14:34:26;98643.59;;;1.53;53.10
50302;BME280;36550;50.472;19.744;2023-04-04T14:37:10;98647.10;;;1.44;53.49
50302;BME280;36550;50.472;19.744;2023-04-04T14:39:54;98637.25;;;1.33;54.12
50302;BME280;36550;50.472;19.744;2023-04-04T14:42:37;98638.58;;;1.35;54.12
50302;BME280;36550;50.472;19.744;2023-04-04T14:45:21;98637.40;;;1.38;53.40
50302;BME280;36550;50.472;19.744;2023-04-04T14:48:06;98643.51;;;1.37;53.52
50302;BME280;36550;50.472;19.744;2023-04-04T14:50:50;98640.52;;;1.31;53.11